Time;durP1;ratioP1;P1;durP2;ratioP2;P2;SDS_P1;SDS_P2;PMS_P1;PMS_P2;Temp;Humidity;BMP_temperature;BMP_pressure;BME280_temperature;BME280_humidity;BME280_pressure;Samples;Min_cycle;Max_cycle;Signal;HPM_P1;HPM_P2
2022/07/15 00:00:13;;;;;;;13.63;2.38;;;14.60;99.90;;;;;;5071996;28;20516;-67
2022/07/15 00:02:39;;;;;;;9.02;2.03;;;14.60;99.90;;;;;;5068644;28;20052;-68
2022/07/15 00:05:06;;;;;;;12.48;1.98;;;14.70;99.90;;;;;;5064238;28;20047;-68
2022/07/15 00:07:33;;;;;;;13.68;2.50;;;14.70;99.90;;;;;;5071239;28;20061;-68
2022/07/15 00:10:14;;;;;;;12.63;2.97;;;14.70;99.90;;;;;;5066848;28;20135;-68
2022/07/15 00:12:58;;;;;;;14.63;2.33;;;14.70;99.90;;;;;;5056086;28;20075;-68
2022/07/15 00:15:31;;;;;;;13.27;1.98;;;14.70;99.90;;;;;;5064293;28;20193;-68
2022/07/15 00:18:01;;;;;;;12.00;2.70;;;14.70;99.90;;;;;;5069420;28;20469;-67
2022/07/15 00:20:33;;;;;;;8.80;2.28;;;14.70;99.90;;;;;;5059000;28;20119;-68
2022/07/15 00:23:04;;;;;;;18.20;2.53;;;14.70;99.90;;;;;;5053031;28;20453;-68
2022/07/15 00:25:30;;;;;;;8.10;2.13;;;14.60;99.90;;;;;;5055912;28;20044;-68
2022/07/15 00:28:04;;;;;;;8.50;2.35;;;14.60;99.90;;;;;;5063091;28;20052;-68
2022/07/15 00:30:32;;;;;;;9.50;2.08;;;14.60;99.90;;;;;;5069649;28;20052;-67
2022/07/15 00:32:58;;;;;;;;;;;14.60;99.90;;;;;;5068704;28;20040;-67
2022/07/15 00:35:24;;;;;;;8.43;2.20;;;14.60;99.90;;;;;;5053038;28;19996;-67
2022/07/15 00:37:49;;;;;;;10.82;2.38;;;14.50;99.90;;;;;;5064115;28;20051;-67
2022/07/15 00:40:16;;;;;;;12.45;2.33;;;14.60;99.90;;;;;;5072043;28;20097;-68
2022/07/15 00:42:45;;;;;;;14.82;2.75;;;14.50;99.90;;;;;;5059680;28;20044;-68
2022/07/15 00:45:11;;;;;;;10.20;2.53;;;14.50;99.90;;;;;;5058139;28;20041;-69
2022/07/15 00:47:37;;;;;;;11.68;2.50;;;14.40;99.90;;;;;;5050257;28;20135;-68
2022/07/15 00:50:03;;;;;;;9.60;2.13;;;14.50;99.90;;;;;;5059707;28;20119;-69
2022/07/15 00:52:29;;;;;;;14.95;2.53;;;14.40;99.90;;;;;;5064975;28;20487;-68
2022/07/15 00:55:00;;;;;;;8.95;2.05;;;14.40;99.90;;;;;;5066372;28;20036;-67
2022/07/15 00:57:27;;;;;;;9.07;2.15;;;14.40;99.90;;;;;;5080123;28;20044;-70
2022/07/15 00:59:54;;;;;;;8.27;2.00;;;14.30;99.90;;;;;;5068197;28;20047;-69
2022/07/15 01:02:20;;;;;;;7.30;2.27;;;14.30;99.90;;;;;;5065605;28;20123;-68
2022/07/15 01:04:48;;;;;;;10.82;2.08;;;14.30;99.90;;;;;;5069321;28;20044;-67
2022/07/15 01:07:13;;;;;;;7.20;1.92;;;14.30;99.90;;;;;;5055348;28;20053;-68
2022/07/15 01:09:39;;;;;;;8.32;1.98;;;14.20;99.90;;;;;;5062895;28;20456;-68
2022/07/15 01:12:05;;;;;;;6.03;1.80;;;14.20;99.90;;;;;;5060316;28;20032;-68
2022/07/15 01:14:31;;;;;;;9.65;2.10;;;14.30;99.90;;;;;;5060554;28;20037;-68
2022/07/15 01:16:57;;;;;;;6.68;2.05;;;14.30;99.90;;;;;;5061096;28;20097;-68
2022/07/15 01:19:22;;;;;;;9.70;2.08;;;14.30;99.90;;;;;;5062934;28;20040;-68
2022/07/15 01:21:48;;;;;;;8.23;1.95;;;14.30;99.90;;;;;;5062016;28;20080;-67
2022/07/15 01:24:14;;;;;;;12.82;1.95;;;14.40;99.90;;;;;;5066691;28;20093;-67
2022/07/15 01:26:40;;;;;;;7.25;1.90;;;14.30;99.90;;;;;;5060022;28;20128;-68
2022/07/15 01:29:06;;;;;;;7.28;1.52;;;14.40;99.90;;;;;;5063339;28;20131;-68
2022/07/15 01:31:31;;;;;;;6.28;1.90;;;14.40;99.90;;;;;;5061383;28;20128;-68
2022/07/15 01:33:57;;;;;;;7.75;1.45;;;14.30;99.90;;;;;;5065282;28;20047;-67
2022/07/15 01:36:23;;;;;;;9.27;1.95;;;14.40;99.90;;;;;;5064459;28;20056;-67
2022/07/15 01:38:48;;;;;;;7.55;1.77;;;14.40;99.90;;;;;;5054576;28;20060;-68
2022/07/15 01:41:14;;;;;;;7.13;2.00;;;14.30;99.90;;;;;;5060624;28;20120;-68
2022/07/15 01:43:40;;;;;;;5.95;1.38;;;14.30;99.90;;;;;;5060045;28;20506;-67
2022/07/15 01:46:06;;;;;;;7.15;2.17;;;14.30;99.90;;;;;;5064244;28;20089;-68
2022/07/15 01:51:16;;;;;;;8.38;1.67;;;14.20;99.90;;;;;;5065021;28;20037;-68
2022/07/15 01:53:41;;;;;;;8.98;1.65;;;14.20;99.90;;;;;;5060476;28;20082;-69
2022/07/15 01:56:07;;;;;;;4.93;1.40;;;14.20;99.90;;;;;;5063988;28;20036;-67
2022/07/15 01:58:33;;;;;;;13.23;1.88;;;14.10;99.90;;;;;;5052028;28;20048;-67
2022/07/15 02:00:59;;;;;;;8.00;1.30;;;14.20;99.90;;;;;;5055541;28;20041;-67
2022/07/15 02:03:25;;;;;;;8.90;1.60;;;14.10;99.90;;;;;;5062910;28;20376;-67
2022/07/15 02:05:50;;;;;;;9.38;1.85;;;14.10;99.90;;;;;;5060037;28;20040;-67
2022/07/15 02:08:16;;;;;;;8.27;1.35;;;14.10;99.90;;;;;;5062710;28;20052;-68
2022/07/15 02:10:42;;;;;;;6.95;2.05;;;14.10;99.90;;;;;;5058896;28;20045;-68
2022/07/15 02:13:13;;;;;;;5.50;1.38;;;14.00;99.90;;;;;;5062408;28;20043;-66
2022/07/15 02:15:40;;;;;;;9.50;1.73;;;14.00;99.90;;;;;;5069346;28;20093;-67
2022/07/15 02:18:06;;;;;;;7.22;1.70;;;14.00;99.90;;;;;;5058507;28;20090;-68
2022/07/15 02:20:33;;;;;;;6.30;1.30;;;13.90;99.90;;;;;;5044503;28;20037;-67
2022/07/15 02:23:01;;;;;;;4.93;1.20;;;13.90;99.90;;;;;;5062280;28;20413;-68
2022/07/15 02:25:29;;;;;;;7.55;1.30;;;13.80;99.90;;;;;;5051456;28;20045;-67
2022/07/15 02:27:56;;;;;;;8.25;1.77;;;13.70;99.90;;;;;;5066369;28;20129;-67
2022/07/15 02:30:26;;;;;;;7.82;1.35;;;13.80;99.90;;;;;;5066448;28;20045;-69
2022/07/15 02:32:55;;;;;;;5.30;1.33;;;13.70;99.90;;;;;;5065603;28;20461;-67
2022/07/15 02:35:21;;;;;;;4.05;1.00;;;13.60;99.90;;;;;;5065635;28;20052;-68
2022/07/15 02:37:47;;;;;;;4.07;1.20;;;13.60;99.90;;;;;;5065266;28;20044;-68
2022/07/15 02:40:13;;;;;;;3.78;1.13;;;13.60;99.90;;;;;;5062683;28;20044;-68
2022/07/15 02:42:46;;;;;;;5.10;1.10;;;13.50;99.90;;;;;;5064753;28;20071;-68
2022/07/15 02:45:11;;;;;;;7.35;1.40;;;13.50;99.90;;;;;;5050708;28;20049;-67
2022/07/15 02:47:37;;;;;;;5.45;1.08;;;13.40;99.90;;;;;;5054867;28;20040;-68
2022/07/15 02:50:03;;;;;;;5.30;1.13;;;13.40;99.90;;;;;;5060786;28;20068;-68
2022/07/15 02:52:28;;;;;;;10.57;1.33;;;13.40;99.90;;;;;;5062072;28;20041;-68
2022/07/15 02:54:54;;;;;;;8.32;1.27;;;13.40;99.90;;;;;;5066729;28;20043;-68
2022/07/15 02:57:20;;;;;;;4.40;0.98;;;13.40;99.90;;;;;;5070793;28;20038;-68
2022/07/15 02:59:45;;;;;;;7.20;1.45;;;13.40;99.90;;;;;;5065287;28;20040;-68
2022/07/15 03:02:11;;;;;;;5.57;1.10;;;13.30;99.90;;;;;;5059913;28;20355;-68
2022/07/15 03:04:37;;;;;;;5.35;1.10;;;13.30;99.90;;;;;;5062087;28;20067;-68
2022/07/15 03:07:03;;;;;;;8.45;1.70;;;13.30;99.90;;;;;;5068959;28;20064;-68
2022/07/15 03:09:29;;;;;;;5.35;1.45;;;13.30;99.90;;;;;;5062283;28;20048;-68
2022/07/15 03:11:55;;;;;;;4.32;1.20;;;13.30;99.90;;;;;;5061199;28;20044;-68
2022/07/15 03:14:20;;;;;;;4.03;1.15;;;13.40;99.90;;;;;;5057656;28;20761;-68
2022/07/15 03:16:46;;;;;;;7.20;1.40;;;13.40;99.90;;;;;;5058462;28;20041;-67
2022/07/15 03:19:14;;;;;;;4.68;1.60;;;13.40;99.90;;;;;;5068594;28;20040;-69
2022/07/15 03:21:40;;;;;;;6.15;1.13;;;13.40;99.90;;;;;;5058340;28;20442;-68
2022/07/15 03:24:07;;;;;;;4.53;1.20;;;13.40;99.90;;;;;;5063320;28;20128;-68
2022/07/15 03:26:33;;;;;;;5.73;1.33;;;13.30;99.90;;;;;;5074182;28;20478;-68
2022/07/15 03:29:00;;;;;;;6.93;2.15;;;13.40;99.90;;;;;;5056043;28;20047;-68
2022/07/15 03:31:26;;;;;;;7.22;1.23;;;13.40;99.90;;;;;;5061151;28;20050;-68
2022/07/15 03:33:53;;;;;;;14.20;1.75;;;13.40;99.90;;;;;;5064204;28;20048;-68
2022/07/15 03:36:19;;;;;;;4.93;1.20;;;13.40;99.90;;;;;;5064907;28;20067;-69
2022/07/15 03:38:44;;;;;;;6.70;1.35;;;13.40;99.90;;;;;;5062880;28;20478;-67
2022/07/15 03:41:10;;;;;;;6.68;1.40;;;13.50;99.90;;;;;;5056028;28;20121;-69
2022/07/15 03:43:35;;;;;;;11.40;2.03;;;13.50;99.90;;;;;;5060556;28;20045;-68
2022/07/15 03:46:01;;;;;;;5.90;1.65;;;13.50;99.90;;;;;;5057643;28;20323;-67
2022/07/15 03:48:27;;;;;;;3.80;1.10;;;13.60;99.90;;;;;;5065802;28;20052;-68
2022/07/15 03:50:53;;;;;;;6.28;1.42;;;13.60;99.90;;;;;;5068552;28;20144;-68
2022/07/15 03:53:19;;;;;;;4.75;0.98;;;13.60;99.90;;;;;;5059377;28;20048;-67
2022/07/15 03:55:44;;;;;;;7.35;1.30;;;13.70;99.90;;;;;;5064239;28;20398;-68
2022/07/15 03:58:10;;;;;;;4.47;1.20;;;13.70;99.90;;;;;;5050429;28;20037;-67
2022/07/15 04:00:36;;;;;;;3.40;1.10;;;13.70;99.90;;;;;;5065556;28;20094;-67
2022/07/15 04:03:01;;;;;;;5.75;1.40;;;13.70;99.90;;;;;;5035094;28;20041;-68
2022/07/15 04:05:27;;;;;;;9.35;1.77;;;13.70;99.90;;;;;;5059485;28;20076;-68
2022/07/15 04:07:53;;;;;;;8.63;1.30;;;13.80;99.90;;;;;;5066407;28;20139;-68
2022/07/15 04:10:19;;;;;;;5.47;1.85;;;13.80;99.90;;;;;;5064098;28;20082;-68
2022/07/15 04:12:44;;;;;;;4.82;1.15;;;13.80;99.90;;;;;;5062095;28;20049;-69
2022/07/15 04:15:10;;;;;;;7.43;1.20;;;13.80;99.90;;;;;;5067823;28;20044;-68
2022/07/15 04:17:41;;;;;;;10.65;1.60;;;13.80;99.90;;;;;;5061671;28;20048;-67
2022/07/15 04:20:07;;;;;;;;;;;13.80;99.90;;;;;;5064196;28;20109;-68
2022/07/15 04:22:46;;;;;;;10.07;1.58;;;13.80;99.90;;;;;;5068361;28;19966;-68
2022/07/15 04:25:16;;;;;;;7.45;1.35;;;13.90;99.90;;;;;;5056742;28;20102;-68
2022/07/15 04:27:42;;;;;;;7.18;1.50;;;13.90;99.90;;;;;;5073235;28;20041;-67
2022/07/15 04:30:08;;;;;;;4.72;1.10;;;13.90;99.90;;;;;;5066100;28;20403;-67
2022/07/15 04:32:36;;;;;;;6.18;1.40;;;13.90;99.90;;;;;;5067208;28;20380;-67
2022/07/15 04:35:02;;;;;;;4.47;1.02;;;13.90;99.90;;;;;;5065067;28;20041;-68
2022/07/15 04:37:28;;;;;;;4.57;1.30;;;13.90;99.90;;;;;;5052341;28;20103;-69
2022/07/15 04:39:55;;;;;;;4.28;1.08;;;13.90;99.90;;;;;;5063938;28;20055;-66
2022/07/15 04:42:21;;;;;;;6.10;1.20;;;13.90;99.90;;;;;;5064946;28;20036;-68
2022/07/15 04:44:47;;;;;;;5.53;1.60;;;13.90;99.90;;;;;;5062686;28;20048;-69
2022/07/15 04:47:14;;;;;;;3.30;1.30;;;14.00;99.90;;;;;;5061743;28;20045;-67
2022/07/15 04:52:30;;;;;;;4.20;1.10;;;14.10;99.90;;;;;;5059792;28;20052;-67
2022/07/15 04:54:56;;;;;;;7.78;1.73;;;14.10;99.90;;;;;;5064539;28;20041;-68
2022/07/15 04:57:22;;;;;;;4.57;1.00;;;14.20;99.90;;;;;;5056087;28;20088;-68
2022/07/15 04:59:47;;;;;;;3.55;1.00;;;14.20;99.90;;;;;;5060072;28;20107;-68
2022/07/15 05:02:13;;;;;;;5.30;1.35;;;14.30;99.90;;;;;;5059460;28;20053;-68
2022/07/15 05:04:42;;;;;;;8.70;1.17;;;14.20;99.90;;;;;;5059309;28;20048;-68
2022/07/15 05:07:08;;;;;;;4.82;1.25;;;14.30;99.90;;;;;;5045136;28;20059;-67
2022/07/15 05:09:34;;;;;;;4.55;1.20;;;14.30;99.90;;;;;;5061824;28;20053;-68
2022/07/15 05:12:00;;;;;;;3.78;1.05;;;14.30;99.90;;;;;;5059519;28;20072;-68
2022/07/15 05:14:25;;;;;;;3.70;1.10;;;14.30;99.90;;;;;;5061814;28;20037;-67
2022/07/15 05:16:55;;;;;;;4.10;1.00;;;14.30;99.90;;;;;;5064799;28;20040;-67
2022/07/15 05:19:24;;;;;;;3.25;1.10;;;14.40;99.90;;;;;;5062684;28;20049;-67
2022/07/15 05:21:49;;;;;;;3.40;1.10;;;14.40;99.90;;;;;;5059862;28;20033;-67
2022/07/15 05:24:15;;;;;;;5.13;1.10;;;14.50;99.90;;;;;;5060765;28;20102;-67
2022/07/15 05:26:41;;;;;;;7.95;1.42;;;14.60;99.90;;;;;;5061592;28;20384;-67
2022/07/15 05:29:07;;;;;;;7.70;1.50;;;14.50;99.90;;;;;;5065665;28;20070;-68
2022/07/15 05:31:33;;;;;;;6.22;1.35;;;14.50;99.90;;;;;;5069647;28;20106;-66
2022/07/15 05:34:01;;;;;;;7.28;1.63;;;14.50;99.90;;;;;;5044770;28;20095;-67
2022/07/15 05:36:27;;;;;;;4.88;1.02;;;14.60;99.90;;;;;;5060753;28;20091;-67
2022/07/15 05:38:53;;;;;;;6.78;1.20;;;14.70;99.90;;;;;;5070648;28;20041;-67
2022/07/15 05:41:18;;;;;;;2.83;1.08;;;14.80;99.90;;;;;;5065355;28;20087;-67
2022/07/15 05:43:44;;;;;;;3.17;1.00;;;14.90;99.90;;;;;;5065737;28;20486;-68
2022/07/15 05:46:11;;;;;;;4.72;1.40;;;15.00;99.90;;;;;;5064699;28;20055;-67
2022/07/15 05:48:39;;;;;;;4.88;1.60;;;15.10;99.90;;;;;;5079854;28;20049;-67
2022/07/15 05:51:07;;;;;;;5.00;0.93;;;15.10;99.90;;;;;;5063603;28;20094;-67
2022/07/15 05:53:33;;;;;;;4.22;1.20;;;15.20;99.90;;;;;;5059760;28;20037;-67
2022/07/15 05:55:59;;;;;;;7.50;1.13;;;15.20;99.90;;;;;;5054202;28;20037;-68
2022/07/15 05:58:25;;;;;;;6.10;1.30;;;15.20;99.90;;;;;;5069471;28;20037;-67
2022/07/15 06:00:52;;;;;;;5.30;1.20;;;15.30;99.90;;;;;;5069165;28;20040;-68
2022/07/15 06:03:18;;;;;;;3.97;1.27;;;15.20;99.90;;;;;;5061148;28;20120;-66
2022/07/15 06:05:47;;;;;;;6.50;1.55;;;15.20;99.90;;;;;;5053044;28;20498;-67
2022/07/15 06:08:13;;;;;;;3.00;1.00;;;15.20;99.90;;;;;;5061726;28;20049;-68
2022/07/15 06:10:40;;;;;;;3.33;1.10;;;15.20;99.90;;;;;;5062295;28;20051;-67
2022/07/15 06:13:06;;;;;;;5.63;1.37;;;15.20;99.90;;;;;;5057913;28;20105;-68
2022/07/15 06:15:31;;;;;;;4.70;1.10;;;15.20;99.90;;;;;;5068842;28;20757;-67
2022/07/15 06:17:57;;;;;;;7.00;1.67;;;15.20;99.90;;;;;;5060309;28;20039;-67
2022/07/15 06:20:23;;;;;;;3.65;1.13;;;15.20;99.90;;;;;;5058064;28;20064;-69
2022/07/15 06:22:49;;;;;;;6.30;1.48;;;15.20;99.90;;;;;;5055209;28;20351;-68
2022/07/15 06:25:15;;;;;;;5.30;1.35;;;15.20;99.90;;;;;;5058729;28;20296;-66
2022/07/15 06:27:41;;;;;;;5.00;1.33;;;15.10;99.90;;;;;;5066924;28;20562;-67
2022/07/15 06:30:07;;;;;;;4.35;1.27;;;15.00;99.90;;;;;;5070373;28;20124;-67
2022/07/15 06:32:33;;;;;;;4.20;1.20;;;15.00;99.90;;;;;;5043091;28;20410;-68
2022/07/15 06:35:02;;;;;;;4.18;1.45;;;15.00;99.90;;;;;;5067542;28;20032;-68
2022/07/15 06:37:28;;;;;;;6.55;1.67;;;15.10;99.90;;;;;;5074380;28;20402;-69
2022/07/15 06:39:55;;;;;;;4.10;1.30;;;15.20;99.90;;;;;;5069470;28;20041;-68
2022/07/15 06:42:21;;;;;;;3.97;1.40;;;15.20;99.90;;;;;;5065936;28;20445;-68
2022/07/15 06:44:47;;;;;;;4.22;1.05;;;15.30;99.90;;;;;;5066658;28;20041;-69
2022/07/15 06:47:13;;;;;;;4.90;1.48;;;15.30;99.90;;;;;;5072102;28;20375;-67
2022/07/15 06:49:42;;;;;;;4.78;1.45;;;15.30;99.90;;;;;;5072455;28;20475;-68
2022/07/15 06:52:08;;;;;;;4.30;1.20;;;15.20;99.90;;;;;;5069753;28;20029;-68
2022/07/15 06:54:33;;;;;;;5.88;1.33;;;15.20;99.90;;;;;;5057806;28;20041;-69
2022/07/15 06:56:59;;;;;;;8.43;1.42;;;15.10;99.90;;;;;;5054438;28;20083;-69
2022/07/15 06:59:28;;;;;;;4.10;1.10;;;15.20;99.90;;;;;;5071231;28;20049;-68
2022/07/15 07:01:54;;;;;;;3.95;1.15;;;15.00;99.90;;;;;;5073895;28;20143;-68
2022/07/15 07:04:20;;;;;;;4.07;1.30;;;15.00;99.90;;;;;;5074937;28;20545;-66
2022/07/15 07:06:45;;;;;;;6.55;1.50;;;15.10;99.90;;;;;;5066666;28;20128;-68
2022/07/15 07:09:14;;;;;;;6.82;1.90;;;15.10;99.90;;;;;;5060829;28;20036;-69
2022/07/15 07:11:42;;;;;;;4.45;1.25;;;15.20;99.90;;;;;;5072876;28;20051;-69
2022/07/15 07:14:10;;;;;;;2.03;0.98;;;15.40;99.90;;;;;;5069317;28;20040;-68
2022/07/15 07:16:36;;;;;;;4.32;1.50;;;15.50;99.90;;;;;;5070019;28;20567;-67
2022/07/15 07:19:02;;;;;;;6.18;1.55;;;15.60;99.90;;;;;;5054720;28;20049;-68
2022/07/15 07:21:28;;;;;;;4.78;1.10;;;15.70;99.90;;;;;;5068301;28;20044;-68
2022/07/15 07:23:53;;;;;;;5.63;1.17;;;15.70;99.90;;;;;;5066416;28;20131;-68
2022/07/15 07:26:19;;;;;;;5.35;1.20;;;15.80;99.90;;;;;;5071180;28;20076;-69
2022/07/15 07:28:45;;;;;;;6.28;1.52;;;15.80;99.90;;;;;;5067025;28;20122;-68
2022/07/15 07:31:13;;;;;;;4.68;1.27;;;15.90;99.90;;;;;;5068852;28;20048;-67
2022/07/15 07:33:39;;;;;;;3.90;1.00;;;16.20;99.90;;;;;;5061862;28;20041;-68
2022/07/15 07:36:07;;;;;;;6.80;1.40;;;16.60;99.90;;;;;;5067439;28;20045;-68
2022/07/15 07:38:33;;;;;;;5.82;1.15;;;16.90;99.90;;;;;;5045026;28;20049;-69
2022/07/15 07:40:59;;;;;;;5.63;1.10;;;17.00;99.90;;;;;;5072295;28;20048;-68
2022/07/15 07:43:25;;;;;;;4.10;0.73;;;16.90;99.90;;;;;;5071177;28;20128;-66
2022/07/15 07:45:50;;;;;;;4.30;1.10;;;16.80;99.90;;;;;;5061699;28;20519;-68
2022/07/15 07:48:16;;;;;;;8.63;1.10;;;16.80;99.90;;;;;;5074400;28;20033;-68
2022/07/15 07:50:44;;;;;;;6.45;0.90;;;16.60;99.90;;;;;;5070335;28;20045;-67
2022/07/15 07:53:13;;;;;;;2.63;0.80;;;16.60;99.90;;;;;;5071460;28;20040;-67
2022/07/15 07:55:42;;;;;;;3.92;1.05;;;16.50;99.90;;;;;;5067776;28;20052;-67
2022/07/15 07:58:11;;;;;;;3.35;1.00;;;16.50;99.90;;;;;;5065204;28;20040;-68
2022/07/15 08:00:37;;;;;;;3.47;1.00;;;16.60;99.90;;;;;;5071780;28;20032;-67
2022/07/15 08:03:03;;;;;;;4.22;1.20;;;16.70;99.90;;;;;;5060166;28;20491;-68
2022/07/15 08:05:29;;;;;;;5.10;1.08;;;16.90;99.90;;;;;;5064943;28;20121;-68
2022/07/15 08:08:16;;;;;;;3.17;1.15;;;17.00;99.90;;;;;;5060004;28;20057;-67
2022/07/15 08:10:47;;;;;;;3.70;1.00;;;17.10;99.90;;;;;;5071710;28;20482;-67
2022/07/15 08:13:14;;;;;;;5.47;1.10;;;17.20;99.90;;;;;;5070081;28;20044;-68
2022/07/15 08:15:40;;;;;;;3.65;0.57;;;17.30;99.90;;;;;;5067113;28;20051;-68
2022/07/15 08:18:06;;;;;;;4.10;1.00;;;17.40;99.90;;;;;;5062937;28;20094;-69
2022/07/15 08:20:32;;;;;;;8.40;1.17;;;17.50;99.90;;;;;;5073791;28;20048;-68
2022/07/15 08:22:59;;;;;;;3.17;1.00;;;17.60;99.90;;;;;;5067864;28;20055;-68
2022/07/15 08:25:31;;;;;;;4.78;0.75;;;17.70;99.90;;;;;;5048363;28;20041;-70
2022/07/15 08:27:58;;;;;;;3.35;0.75;;;17.60;99.90;;;;;;5071128;28;20080;-69
2022/07/15 08:30:25;;;;;;;4.18;0.93;;;17.50;99.90;;;;;;5071534;28;20082;-68
2022/07/15 08:32:51;;;;;;;1.85;0.70;;;17.40;99.90;;;;;;5070472;28;20401;-68
2022/07/15 08:35:16;;;;;;;3.47;0.93;;;17.30;99.90;;;;;;5070166;28;20052;-67
2022/07/15 08:37:42;;;;;;;1.90;0.65;;;17.30;99.90;;;;;;5060348;28;20033;-68
2022/07/15 08:40:09;;;;;;;1.30;0.52;;;17.40;99.90;;;;;;5071112;28;20044;-68
2022/07/15 08:42:37;;;;;;;3.85;1.15;;;17.50;99.90;;;;;;5059972;28;20040;-68
2022/07/15 08:45:03;;;;;;;2.70;0.75;;;17.60;99.90;;;;;;5040651;28;20075;-67
2022/07/15 08:47:31;;;;;;;2.17;1.05;;;17.70;99.90;;;;;;5060672;28;20033;-68
2022/07/15 08:49:58;;;;;;;3.85;1.52;;;17.90;99.90;;;;;;5069165;28;20065;-68
2022/07/15 08:52:25;;;;;;;3.30;1.00;;;17.90;99.90;;;;;;5069993;28;20048;-68
2022/07/15 08:54:54;;;;;;;4.28;1.27;;;17.80;99.90;;;;;;5080322;28;20053;-66
2022/07/15 08:57:20;;;;;;;3.65;1.15;;;17.80;99.90;;;;;;5070168;28;20161;-67
2022/07/15 08:59:46;;;;;;;5.07;0.90;;;17.70;99.90;;;;;;5060143;28;20029;-67
2022/07/15 09:02:18;;;;;;;3.42;0.88;;;17.70;99.90;;;;;;5070745;28;20036;-68
2022/07/15 09:05:23;;;;;;;2.88;0.85;;;17.60;99.90;;;;;;5061994;28;20051;-67
2022/07/15 09:07:56;;;;;;;1.65;0.73;;;17.60;99.90;;;;;;5063254;28;20532;-68
2022/07/15 09:10:24;;;;;;;2.40;0.90;;;17.70;99.90;;;;;;5068547;28;20067;-69
2022/07/15 09:12:51;;;;;;;;;;;18.00;99.90;;;;;;5060211;28;20040;-67
2022/07/15 09:15:32;;;;;;;3.25;0.73;;;18.30;99.90;;;;;;5060861;28;20432;-66
2022/07/15 09:18:10;;;;;;;2.90;0.88;;;18.50;99.90;;;;;;5067443;28;20430;-68
2022/07/15 09:20:37;;;;;;;2.35;0.73;;;18.50;99.90;;;;;;5065830;28;20076;-65
2022/07/15 09:23:03;;;;;;;5.45;1.00;;;18.40;99.90;;;;;;5060420;28;20041;-68
2022/07/15 09:25:33;;;;;;;6.30;0.85;;;18.40;99.90;;;;;;5048782;28;20119;-67
2022/07/15 09:28:01;;;;;;;2.10;0.82;;;18.40;99.90;;;;;;5055391;28;20078;-67
2022/07/15 09:33:40;;;;;;;3.97;0.90;;;18.40;99.90;;;;;;5057588;28;19932;-68
2022/07/15 09:36:25;;;;;;;6.68;1.00;;;18.50;99.90;;;;;;5064173;28;20056;-67
2022/07/15 09:38:55;;;;;;;3.53;0.98;;;18.40;99.90;;;;;;5064375;28;20663;-67
2022/07/15 09:41:27;;;;;;;3.20;0.88;;;18.30;99.90;;;;;;5060138;28;20098;-68
2022/07/15 09:44:14;;;;;;;7.40;1.00;;;18.20;99.90;;;;;;5064691;28;20403;-66
2022/07/15 09:46:49;;;;;;;11.98;1.35;;;18.20;99.90;;;;;;5070266;28;20119;-66
2022/07/15 09:49:35;;;;;;;5.05;1.05;;;18.20;99.90;;;;;;5066979;28;20158;-67
2022/07/15 09:52:04;;;;;;;3.00;0.82;;;18.40;99.90;;;;;;5066512;28;20502;-67
2022/07/15 09:54:32;;;;;;;3.08;0.82;;;18.50;99.90;;;;;;5069556;28;20079;-68
2022/07/15 09:57:00;;;;;;;3.90;0.82;;;18.70;99.90;;;;;;5062651;28;20048;-67
2022/07/15 09:59:27;;;;;;;6.15;0.88;;;18.80;99.90;;;;;;5070053;28;20041;-67
2022/07/15 10:01:53;;;;;;;2.58;0.95;;;18.80;99.90;;;;;;5067178;28;20102;-66
2022/07/15 10:04:25;;;;;;;2.03;0.60;;;18.90;99.90;;;;;;5045800;28;20479;-67
2022/07/15 10:06:52;;;;;;;4.50;0.88;;;18.90;99.90;;;;;;5068839;28;20048;-66
2022/07/15 10:09:26;;;;;;;3.10;1.00;;;19.00;99.90;;;;;;5066602;28;20067;-67
2022/07/15 10:12:00;;;;;;;3.67;0.80;;;19.00;99.90;;;;;;5061491;28;20123;-68
2022/07/15 10:14:54;;;;;;;4.72;1.08;;;19.10;99.90;;;;;;5063168;28;20041;-68
2022/07/15 10:17:55;;;;;;;3.05;0.80;;;19.10;99.90;;;;;;5064756;28;20395;-67
2022/07/15 10:20:42;;;;;;;2.38;0.95;;;19.20;99.90;;;;;;5058182;28;20141;-67
2022/07/15 10:23:22;;;;;;;3.25;0.73;;;19.30;99.90;;;;;;5062787;28;20056;-67
2022/07/15 10:26:27;;;;;;;3.97;0.70;;;19.30;99.00;;;;;;5068484;28;20131;-67
2022/07/15 10:28:58;;;;;;;3.08;0.82;;;19.40;99.10;;;;;;5051805;28;20480;-67
2022/07/15 10:31:26;;;;;;;2.03;0.93;;;19.60;99.50;;;;;;5062931;28;20047;-68
2022/07/15 10:34:06;;;;;;;2.58;1.00;;;19.70;99.60;;;;;;5058156;28;20044;-68
2022/07/15 10:36:47;;;;;;;1.45;0.60;;;19.80;99.50;;;;;;5056907;28;20056;-66
2022/07/15 10:39:14;;;;;;;3.55;0.82;;;19.80;98.60;;;;;;5056425;28;20056;-67
2022/07/15 10:42:00;;;;;;;3.72;0.65;;;19.70;98.50;;;;;;5060376;28;20041;-67
2022/07/15 10:44:29;;;;;;;4.18;1.00;;;19.70;97.40;;;;;;5060631;28;20052;-68
2022/07/15 10:47:13;;;;;;;2.80;0.80;;;19.60;97.90;;;;;;5062005;28;20040;-67
2022/07/15 10:49:46;;;;;;;2.10;1.10;;;19.40;97.40;;;;;;5054001;28;20041;-67
2022/07/15 10:52:23;;;;;;;1.52;0.80;;;19.30;98.10;;;;;;5054550;28;20163;-67
2022/07/15 10:54:55;;;;;;;2.78;1.13;;;19.30;97.40;;;;;;5066908;28;20048;-68
2022/07/15 10:57:41;;;;;;;1.25;0.57;;;19.10;96.80;;;;;;5066478;28;20162;-69
2022/07/15 11:00:28;;;;;;;1.52;0.75;;;19.00;96.80;;;;;;5052520;28;20099;-68
2022/07/15 11:03:01;;;;;;;1.63;0.70;;;18.90;97.00;;;;;;5057951;28;20088;-66
2022/07/15 11:05:26;;;;;;;3.70;0.65;;;18.80;97.40;;;;;;5066315;28;20407;-67
2022/07/15 11:07:52;;;;;;;4.20;0.75;;;18.70;97.20;;;;;;5056138;28;20060;-68
2022/07/15 11:10:19;;;;;;;2.17;0.80;;;18.70;97.20;;;;;;5061783;28;20510;-67
2022/07/15 11:12:48;;;;;;;2.73;0.93;;;18.60;96.90;;;;;;5063979;28;20080;-67
2022/07/15 11:15:18;;;;;;;1.10;0.52;;;18.60;96.90;;;;;;5069990;28;20132;-67
2022/07/15 11:17:49;;;;;;;1.70;0.80;;;18.50;97.70;;;;;;5056401;28;20043;-67
2022/07/15 11:20:27;;;;;;;1.73;0.63;;;18.50;98.30;;;;;;5064655;28;20049;-67
2022/07/15 11:22:55;;;;;;;3.67;0.70;;;18.50;97.90;;;;;;5072018;28;20086;-68
2022/07/15 11:25:42;;;;;;;1.75;0.70;;;18.60;97.80;;;;;;5071523;28;20032;-67
2022/07/15 11:28:08;;;;;;;6.53;1.10;;;18.60;98.00;;;;;;5066534;28;20040;-68
2022/07/15 11:30:40;;;;;;;4.90;0.90;;;18.70;98.00;;;;;;5070051;28;20052;-66
2022/07/15 11:33:13;;;;;;;1.92;0.90;;;18.80;98.20;;;;;;5072558;28;20036;-66
2022/07/15 11:35:45;;;;;;;2.75;0.82;;;18.90;98.00;;;;;;5061093;28;20048;-66
2022/07/15 11:38:14;;;;;;;1.88;0.68;;;19.10;98.10;;;;;;5061927;28;20040;-67
2022/07/15 11:46:15;;;;;;;3.97;0.88;;;19.50;97.30;;;;;;5057752;28;20517;-66
2022/07/15 11:48:41;;;;;;;5.43;1.05;;;19.70;97.40;;;;;;5072393;28;20174;-65
2022/07/15 11:51:09;;;;;;;2.25;0.60;;;19.80;96.90;;;;;;5072313;28;20139;-66
2022/07/15 11:53:42;;;;;;;3.53;0.80;;;19.80;96.90;;;;;;5065323;28;20049;-66
2022/07/15 11:56:13;;;;;;;3.90;0.80;;;20.00;96.10;;;;;;5060242;28;20045;-66
2022/07/15 11:58:42;;;;;;;5.15;0.90;;;20.10;96.30;;;;;;5057754;28;20094;-66
2022/07/15 12:01:19;;;;;;;4.28;1.10;;;20.30;96.90;;;;;;5040913;28;20186;-66
2022/07/15 12:03:47;;;;;;;2.40;0.90;;;20.50;96.40;;;;;;5060388;28;20119;-67
2022/07/15 12:06:33;;;;;;;3.38;1.00;;;20.70;96.60;;;;;;5064648;28;20040;-66
2022/07/15 12:09:03;;;;;;;1.60;1.08;;;20.60;96.10;;;;;;5056797;28;20098;-67
2022/07/15 12:11:37;;;;;;;4.03;1.00;;;20.50;96.10;;;;;;5053406;28;20215;-67
2022/07/15 12:14:12;;;;;;;3.20;0.73;;;20.30;95.80;;;;;;5064113;28;20123;-66
2022/07/15 12:16:43;;;;;;;3.13;1.10;;;20.20;96.20;;;;;;5059680;28;20041;-68
2022/07/15 12:19:26;;;;;;;5.78;1.20;;;19.90;96.80;;;;;;5070581;28;20044;-66
2022/07/15 12:21:57;;;;;;;3.67;1.10;;;19.60;96.80;;;;;;5064711;28;20406;-66
2022/07/15 12:24:25;;;;;;;3.78;1.30;;;19.40;97.50;;;;;;5063194;28;20052;-66
2022/07/15 12:26:52;;;;;;;2.70;0.90;;;19.20;97.60;;;;;;5072067;28;20055;-66
2022/07/15 12:29:29;;;;;;;2.97;1.02;;;19.10;98.10;;;;;;5065113;28;20052;-67
2022/07/15 12:32:08;;;;;;;3.13;1.10;;;19.10;98.50;;;;;;5063441;28;20032;-66
2022/07/15 12:34:46;;;;;;;4.95;1.20;;;19.10;98.50;;;;;;5059303;28;20037;-65
2022/07/15 12:37:18;;;;;;;3.55;1.00;;;19.10;98.80;;;;;;5062884;28;20032;-66
2022/07/15 12:39:59;;;;;;;4.00;1.00;;;19.00;99.20;;;;;;5063797;28;20060;-66
2022/07/15 12:42:28;;;;;;;4.32;1.52;;;19.00;99.30;;;;;;5064783;28;20045;-66
2022/07/15 12:45:16;;;;;;;2.72;1.20;;;18.90;99.40;;;;;;5057467;28;20167;-66
2022/07/15 12:48:04;;;;;;;5.18;1.23;;;18.90;99.70;;;;;;5068577;28;20383;-67
2022/07/15 12:50:50;;;;;;;4.05;1.20;;;18.90;99.90;;;;;;5057820;28;20041;-66
2022/07/15 12:53:20;;;;;;;5.20;1.25;;;19.00;99.90;;;;;;5066522;28;20113;-66
2022/07/15 12:55:48;;;;;;;5.80;1.35;;;19.00;99.90;;;;;;5053026;28;20041;-68
2022/07/15 12:58:25;;;;;;;4.07;1.23;;;18.90;99.90;;;;;;5060377;28;20052;-66
2022/07/15 13:00:51;;;;;;;1.90;1.20;;;18.90;99.90;;;;;;5060554;28;20406;-67
2022/07/15 13:03:20;;;;;;;1.83;1.02;;;18.80;99.90;;;;;;5059920;28;20391;-67
2022/07/15 13:05:51;;;;;;;2.95;1.00;;;18.80;99.80;;;;;;5066170;28;20032;-68
2022/07/15 13:08:26;;;;;;;3.47;1.30;;;18.80;99.90;;;;;;5056386;28;20451;-67
2022/07/15 13:10:54;;;;;;;2.00;1.08;;;18.80;99.90;;;;;;5063080;28;20056;-66